Flight Track Log - Related Links

Times and Time Zones

All times are in EDT time to prevent confusion due to time zone crossing. See the KAP291 flight status page for this flight to view local times or setup timezone preferences in your user account.

Time Position Orientation Groundspeed Altitude Reporting Facility
EDT Latitude Longitude Course Direction KTS MPH feet Rate Location/Type
Wed 08:19:00 PM 41.3934 -70.6139 163° South  Level Estimated
Wed 08:20:00 PM 41.3934 -70.6139 304° West  Level Estimated
Wed 08:21:00 PM 41.3934 -70.6139 304° West  Level Estimated
Wed 08:22:00 PM 41.3934 -70.6139 304° West  Level Estimated
Wed 08:23:00 PM 41.3934 -70.6139 304° West  Level Estimated
Wed 08:24:00 PM 41.3934 -70.6139 304° West  Level Estimated
Wed 08:25:00 PM 41.3934 -70.6139 304° West  Level Estimated
Wed 08:26:00 PM 41.3934 -70.6139 304° West  Level Estimated
Wed 08:27:00 PM 41.3934 -70.6139 304° West  Level Estimated
Wed 08:28:00 PM 41.3934 -70.6139 304° West  Level Estimated
Wed 08:29:00 PM 41.3934 -70.6139 304° West  Level Estimated
Wed 08:30:00 PM 41.3934 -70.6139 304° West  Level Estimated
Wed 08:31:00 PM 41.3934 -70.6139 304° West  Level Estimated
Wed 08:32:00 PM 41.3934 -70.6139 304° West  Level Estimated
Wed 08:33:00 PM 41.3934 -70.6139 304° West  Level Estimated
Wed 08:34:00 PM 41.3934 -70.6139 304° West  Level Estimated
Wed 08:35:00 PM 41.3934 -70.6139 304° West  Level Estimated
Wed 08:36:00 PM 41.3934 -70.6139 304° West  Level Estimated
Wed 08:37:00 PM 41.3934 -70.6139 304° West  Level Estimated
Wed 08:38:00 PM 41.3934 -70.6139 304° West  Level Estimated
Wed 08:39:00 PM 41.3934 -70.6139 304° West  Level Estimated
Wed 08:40:00 PM 41.3934 -70.6139 304° West  Level Estimated
Wed 08:41:00 PM 41.3934 -70.6139 304° West  Level Estimated
Wed 08:42:00 PM 41.3934 -70.6139 304° West  Level Estimated
Wed 08:43:00 PM 41.3934 -70.6139 304° West  Level Estimated
Wed 08:44:00 PM 41.3934 -70.6139 304° West  Level Estimated
Wed 08:45:00 PM 41.3934 -70.6139 304° West  Level Estimated
Wed 08:46:00 PM 41.3934 -70.6139 304° West  Level Estimated
Wed 08:47:00 PM 41.3934 -70.6139 304° West  Level Estimated
Wed 08:48:00 PM 41.3934 -70.6139 304° West  Level Estimated
Wed 08:49:00 PM 41.3934 -70.6139 304° West  Level Estimated
Wed 08:49:38 PM 42.3500 -71.0333 216° Southwest 109 125 1,000  Level KA90
Wed 08:50:00 PM 41.3934 -70.6139 304° West  Level Estimated
Wed 08:50:44 PM 42.3167 -71.0667 216° Southwest 116 133 1,600  Level KA90
Wed 08:51:00 PM 41.3934 -70.6139 304° West  Level Estimated
Wed 08:51:37 PM 42.2833 -71.0833 200° South 124 143 2,000  Level KA90
Wed 08:52:00 PM 41.3934 -70.6139 304° West  Level Estimated
Wed 08:52:37 PM 42.2667 -71.0667 143° Southeast 133 153 2,400  Level KA90
Wed 08:53:00 PM 41.3934 -70.6139 304° West  Level Estimated
Wed 08:53:32 PM 42.2333 -71.0167 132° Southeast 141 162 2,800  Level KA90
Wed 08:54:00 PM 41.3934 -70.6139 304° West  Level Estimated
Wed 08:54:37 PM 42.2000 -70.9833 143° Southeast 137 158 3,400  Level KA90
Wed 08:55:32 PM 42.1667 -70.9833 180° South 134 154 3,800 436 Climbing KA90
Wed 08:57:00 PM 42.1159 -70.9588 166° South  Level Estimated
Wed 09:04:00 PM 41.8865 -70.8029 161° South  Level FlightAware Approximate
Wed 09:05:00 PM 41.8516 -70.7870 161° South  Level FlightAware Approximate
Wed 09:06:00 PM 41.8168 -70.7712 161° South  Level FlightAware Approximate
Wed 09:07:00 PM 41.7820 -70.7554 161° South  Level FlightAware Approximate
Wed 09:08:00 PM 41.7471 -70.7396 161° South  Level FlightAware Approximate
Wed 09:09:00 PM 41.7119 -70.7253 164° South  Level FlightAware Approximate
Wed 09:10:00 PM 41.6765 -70.7120 164° South  Level FlightAware Approximate
Wed 09:11:00 PM 41.6411 -70.6987 164° South  Level FlightAware Approximate
Wed 09:12:00 PM 41.6057 -70.6855 164° South  Level FlightAware Approximate
Wed 09:13:00 PM 41.5703 -70.6722 164° South  Level FlightAware Approximate
Wed 09:14:00 PM 41.5349 -70.6589 164° South  Level FlightAware Approximate
Wed 09:15:00 PM 41.4995 -70.6456 164° South  Level FlightAware Approximate
Wed 09:16:00 PM 41.4641 -70.6323 163° South  Level FlightAware Approximate
Wed 09:17:00 PM 41.4288 -70.6182 163° South  Level FlightAware Approximate
Wed 09:18:00 PM 41.3936 -70.6041 163° South  Level FlightAware Approximate
Wed 09:19:00 PM 41.3833 -70.6000 163° South  Level FlightAware Approximate
Wed 09:20:00 PM 41.3934 -70.6139 163° South  Level Estimated
Wed 09:21:00 PM 41.3934 -70.6139 163° South  Level Estimated

Login

Don't have an account? Register now (free) for customized features, flight alerts, and more!